Time;durP1;ratioP1;P1;durP2;ratioP2;P2;SDS_P1;SDS_P2;PMS_P1;PMS_P2;Temp;Humidity;BMP_temperature;BMP_pressure;BME280_temperature;BME280_humidity;BME280_pressure;Samples;Min_cycle;Max_cycle;Signal;HPM_P1;HPM_P2
2022/05/07 00:01:09;;;;;;;6.27;5.50;;;;;;;14.21;76.03;102275.47;5037214;28;20296;-72
2022/05/07 00:03:35;;;;;;;7.53;5.03;;;;;;;14.33;75.58;102274.94;5042283;28;20205;-72
2022/05/07 00:06:00;;;;;;;10.50;5.27;;;;;;;14.35;76.09;102265.53;5042581;28;20834;-70
2022/05/07 00:08:25;;;;;;;7.57;4.57;;;;;;;14.23;76.53;102263.50;5034854;28;20214;-72
2022/05/07 00:10:52;;;;;;;4.37;3.97;;;;;;;14.27;75.51;102278.19;5030305;28;20178;-73
2022/05/07 00:13:17;;;;;;;6.93;4.93;;;;;;;14.25;75.81;102277.31;5028850;28;20264;-72
2022/05/07 00:18:01;;;;;;;4.43;4.03;;;;;;;14.26;76.24;102275.56;5028037;28;20181;-72
2022/05/07 00:18:29;;;;;;;5.37;4.17;;;;;;;14.29;75.96;102268.81;5029499;28;20217;-72
2022/05/07 00:20:54;;;;;;;5.30;4.30;;;;;;;14.31;75.57;102264.56;5029060;28;20299;-72
2022/05/07 00:23:19;;;;;;;4.77;4.37;;;;;;;14.22;75.97;102266.91;5029554;28;20202;-71
2022/05/07 00:25:45;;;;;;;4.57;4.17;;;;;;;14.22;76.91;102271.19;5029035;28;20776;-72
2022/05/07 00:28:10;;;;;;;4.13;3.73;;;;;;;14.15;77.32;102269.22;5028181;28;20567;-72
2022/05/07 00:30:36;;;;;;;5.33;4.40;;;;;;;14.17;76.95;102271.03;5035941;28;20542;-72
2022/05/07 00:33:01;;;;;;;4.60;4.20;;;;;;;14.07;77.19;102270.72;5041279;28;20224;-72
2022/05/07 00:35:26;;;;;;;5.63;4.27;;;;;;;14.08;76.64;102268.19;5032945;28;20198;-71
2022/05/07 00:37:52;;;;;;;4.83;4.20;;;;;;;14.10;77.67;102268.25;5044691;28;20205;-72
2022/05/07 00:40:17;;;;;;;5.03;4.53;;;;;;;14.05;77.49;102269.81;5046056;28;20224;-72
2022/05/07 00:42:42;;;;;;;4.50;4.10;;;;;;;14.01;77.73;102267.97;5040468;28;20213;-72
2022/05/07 00:45:08;;;;;;;4.73;4.33;;;;;;;13.90;77.55;102270.25;5041617;28;20193;-72
2022/05/07 00:47:33;;;;;;;4.87;4.37;;;;;;;13.96;78.25;102269.56;5040796;28;20190;-71
2022/05/07 00:52:46;;;;;;;5.63;4.40;;;;;;;13.98;77.04;102267.88;5031354;28;20700;-72
2022/05/07 00:55:12;;;;;;;5.27;4.70;;;;;;;13.96;77.27;102266.97;5011717;28;20183;-71
2022/05/07 00:57:38;;;;;;;7.97;5.00;;;;;;;13.94;77.44;102260.88;5041511;28;20197;-72
2022/05/07 01:00:05;;;;;;;5.53;4.50;;;;;;;13.86;77.88;102257.25;5045711;28;20211;-73
2022/05/07 01:02:31;;;;;;;5.20;4.70;;;;;;;13.89;77.76;102254.75;5031116;28;20206;-72
2022/05/07 01:04:57;;;;;;;5.97;4.70;;;;;;;13.85;77.11;102258.94;5037097;28;20694;-72
2022/05/07 01:07:22;;;;;;;5.90;4.70;;;;;;;13.78;77.60;102259.59;5044259;28;20300;-73
2022/05/07 01:09:48;;;;;;;5.30;4.77;;;;;;;13.79;78.06;102260.47;5041958;28;20568;-72
2022/05/07 01:12:14;;;;;;;4.77;4.27;;;;;;;13.78;77.85;102256.16;5033239;28;20533;-72
2022/05/07 01:14:40;;;;;;;5.47;4.97;;;;;;;13.76;78.43;102257.81;5033023;28;20201;-72
2022/05/07 01:17:07;;;;;;;5.43;4.93;;;;;;;13.77;78.08;102260.41;5030843;28;20194;-71
2022/05/07 01:19:32;;;;;;;6.90;5.97;;;;;;;13.69;79.37;102248.16;5030952;28;20352;-72
2022/05/07 01:21:57;;;;;;;7.33;5.53;;;;;;;13.70;79.78;102252.47;5031961;28;21001;-73
2022/05/07 01:24:23;;;;;;;6.57;5.87;;;;;;;13.67;79.99;102254.97;5036731;28;20207;-72
2022/05/07 01:26:49;;;;;;;7.13;6.40;;;;;;;13.64;79.82;102253.19;5036057;28;20185;-72
2022/05/07 01:29:14;;;;;;;7.27;6.57;;;;;;;13.63;80.03;102258.28;5047421;28;20197;-71
2022/05/07 01:31:43;;;;;;;7.70;6.90;;;;;;;13.59;80.21;102248.72;5049977;28;20189;-72
2022/05/07 01:34:08;;;;;;;7.10;6.37;;;;;;;13.58;80.09;102246.97;5047310;28;20206;-72
2022/05/07 01:36:38;;;;;;;8.67;6.83;;;;;;;13.50;79.82;102246.75;5032239;28;20193;-72
2022/05/07 01:39:08;;;;;;;8.70;6.53;;;;;;;13.48;79.60;102245.81;5042146;28;20244;-72
2022/05/07 01:41:33;;;;;;;6.67;5.80;;;;;;;13.47;79.49;102245.75;5043818;28;20215;-72
2022/05/07 01:44:00;;;;;;;5.83;5.23;;;;;;;13.40;80.25;102243.84;5040922;28;20212;-72
2022/05/07 01:49:13;;;;;;;6.97;5.97;;;;;;;13.22;80.56;102243.28;5049977;28;20181;-71
2022/05/07 01:51:39;;;;;;;6.63;5.90;;;;;;;13.22;79.96;102241.56;5046401;28;20273;-72
2022/05/07 01:54:04;;;;;;;8.13;5.90;;;;;;;13.10;80.19;102250.59;5038559;28;20218;-72
2022/05/07 01:56:29;;;;;;;8.70;6.03;;;;;;;13.13;80.02;102253.28;5042898;28;20189;-72
2022/05/07 01:58:55;;;;;;;6.30;5.70;;;;;;;13.10;79.99;102248.91;5036629;28;21309;-71
2022/05/07 02:01:21;;;;;;;7.13;6.40;;;;;;;13.06;79.51;102249.63;5035903;28;20202;-71
2022/05/07 02:03:47;;;;;;;6.70;5.70;;;;;;;13.08;79.19;102254.84;5035246;28;20236;-72
2022/05/07 02:06:16;;;;;;;6.80;6.10;;;;;;;12.99;79.33;102249.41;5046049;28;20609;-73
2022/05/07 02:08:43;;;;;;;5.87;5.23;;;;;;;13.01;78.99;102255.44;5038825;28;20193;-73
2022/05/07 02:11:15;;;;;;;6.63;6.03;;;;;;;12.97;79.06;102246.78;5046602;28;20197;-72
2022/05/07 02:13:41;;;;;;;6.73;6.13;;;;;;;12.91;79.06;102249.13;5049674;28;20217;-72
2022/05/07 02:16:07;;;;;;;6.77;6.17;;;;;;;12.83;79.10;102248.88;5040545;28;20229;-72
2022/05/07 02:18:32;;;;;;;7.13;6.17;;;;;;;12.80;79.24;102253.00;5035927;28;20201;-72
2022/05/07 02:20:57;;;;;;;8.17;6.50;;;;;;;12.82;79.57;102252.25;5031552;28;20214;-72
2022/05/07 02:23:23;;;;;;;7.23;6.10;;;;;;;12.83;79.32;102245.41;5032848;28;20563;-73
2022/05/07 02:25:48;;;;;;;8.20;6.67;;;;;;;12.76;79.67;102246.06;5031433;28;20185;-72
2022/05/07 02:28:14;;;;;;;8.27;6.47;;;;;;;12.75;80.13;102249.44;5028074;28;20194;-72
2022/05/07 02:30:40;;;;;;;7.60;6.83;;;;;;;12.73;80.28;102243.38;5015237;28;20180;-71
2022/05/07 02:33:06;;;;;;;8.37;7.10;;;;;;;12.65;80.34;102245.69;5029123;28;20213;-72
2022/05/07 02:35:34;;;;;;;8.00;7.10;;;;;;;12.65;80.20;102247.38;5036655;28;20543;-72
2022/05/07 02:38:00;;;;;;;7.10;6.40;;;;;;;12.58;79.91;102253.16;5037627;28;20196;-72
2022/05/07 02:40:26;;;;;;;8.07;6.90;;;;;;;12.54;79.96;102256.44;5049376;28;20214;-72
2022/05/07 02:42:54;;;;;;;7.30;6.50;;;;;;;12.49;80.65;102252.84;5041848;28;20210;-72
2022/05/07 02:45:20;;;;;;;7.47;6.20;;;;;;;12.49;79.99;102255.41;5031787;28;20198;-71
2022/05/07 02:47:50;;;;;;;8.80;6.47;;;;;;;12.47;79.38;102249.31;5029433;28;20194;-72
2022/05/07 02:50:18;;;;;;;8.33;6.90;;;;;;;12.40;80.55;102252.53;5033081;28;20532;-72
2022/05/07 02:52:43;;;;;;;8.23;6.63;;;;;;;12.34;81.55;102253.19;5034352;28;20206;-72
2022/05/07 02:55:10;;;;;;;8.03;6.67;;;;;;;12.36;81.29;102248.09;5029013;28;20189;-71
2022/05/07 02:57:36;;;;;;;7.93;6.70;;;;;;;12.30;80.69;102253.03;5029251;28;20218;-71
2022/05/07 03:00:04;;;;;;;8.00;6.70;;;;;;;12.26;80.96;102256.31;5028860;28;20662;-71
2022/05/07 03:02:31;;;;;;;7.63;6.83;;;;;;;12.16;80.92;102249.09;5027407;28;20233;-72
2022/05/07 03:04:57;;;;;;;8.23;6.07;;;;;;;11.98;80.28;102251.00;5038761;28;20197;-72
2022/05/07 03:07:22;;;;;;;6.97;5.97;;;;;;;11.98;80.29;102249.28;5028588;28;20556;-72
2022/05/07 03:09:49;;;;;;;7.03;6.07;;;;;;;11.93;80.15;102253.38;5028913;28;20178;-72
2022/05/07 03:12:14;;;;;;;8.53;6.43;;;;;;;11.91;80.66;102247.34;5029423;28;20186;-72
2022/05/07 03:14:43;;;;;;;8.67;6.73;;;;;;;11.82;81.25;102249.56;5028855;28;20667;-72
2022/05/07 03:17:08;;;;;;;7.33;6.40;;;;;;;11.80;81.29;102238.34;5030430;28;20202;-71
2022/05/07 03:19:34;;;;;;;7.87;6.67;;;;;;;11.81;80.74;102247.84;5043437;28;20277;-71
2022/05/07 03:22:00;;;;;;;7.60;6.47;;;;;;;11.70;81.34;102254.25;5048522;28;20300;-72
2022/05/07 03:24:27;;;;;;;7.73;6.37;;;;;;;11.62;80.54;102249.66;5048234;28;20290;-71
2022/05/07 03:26:56;;;;;;;6.47;5.70;;;;;;;11.60;80.53;102251.25;5048612;28;20186;-72
2022/05/07 03:29:22;;;;;;;7.53;6.43;;;;;;;11.53;81.09;102251.84;5047603;28;20196;-72
2022/05/07 03:31:53;;;;;;;7.83;6.77;;;;;;;11.43;81.16;102254.88;5032255;28;20205;-72
2022/05/07 03:34:19;;;;;;;9.13;7.63;;;;;;;11.41;81.46;102254.81;5034124;28;20256;-71
2022/05/07 03:36:45;;;;;;;7.67;6.87;;;;;;;11.27;81.95;102255.97;5038677;28;20205;-72
2022/05/07 03:39:12;;;;;;;9.20;6.27;;;;;;;11.17;82.36;102253.84;5017973;28;20239;-72
2022/05/07 03:41:39;;;;;;;10.77;7.40;;;;;;;11.28;81.89;102252.56;5033588;28;20221;-72
2022/05/07 03:44:06;;;;;;;8.23;6.50;;;;;;;11.25;81.61;102264.41;5028225;28;20224;-72
2022/05/07 03:46:32;;;;;;;7.87;7.07;;;;;;;11.20;81.55;102261.66;5027980;28;20691;-72
2022/05/07 03:49:00;;;;;;;9.50;7.13;;;;;;;11.15;81.91;102254.59;5028711;28;20277;-72
2022/05/07 03:51:25;;;;;;;10.43;6.77;;;;;;;11.22;81.43;102254.03;5027584;28;20265;-71
2022/05/07 03:53:59;;;;;;;8.37;7.47;;;;;;;11.27;81.75;102255.97;5028235;28;20221;-73
2022/05/07 03:56:24;;;;;;;7.13;6.43;;;;;;;11.37;82.39;102258.06;5027833;28;20225;-72
2022/05/07 03:58:50;;;;;;;7.13;6.10;;;;;;;11.40;81.84;102247.94;5029645;28;20222;-72
2022/05/07 04:01:27;;;;;;;7.13;6.30;;;;;;;11.45;82.35;102254.09;5027887;28;20252;-72
2022/05/07 04:03:52;;;;;;;10.90;6.90;;;;;;;11.53;82.14;102262.09;5027679;28;20242;-72
2022/05/07 04:06:17;;;;;;;8.40;6.67;;;;;;;11.52;82.68;102256.06;5019521;28;20203;-72
2022/05/07 04:08:45;;;;;;;8.10;7.30;;;;;;;11.55;83.25;102257.88;5008131;28;20183;-72
2022/05/07 04:11:12;;;;;;;9.33;7.33;;;;;;;11.61;83.10;102264.16;5008319;28;20183;-71
2022/05/07 04:13:38;;;;;;;10.73;8.13;;;;;;;11.69;83.50;102264.44;5007924;28;20302;-72
2022/05/07 04:16:04;;;;;;;9.13;8.10;;;;;;;11.66;84.51;102270.34;5007808;28;20261;-71
2022/05/07 04:18:43;;;;;;;7.83;7.03;;;;;;;11.73;85.24;102264.63;5007975;28;20281;-72
2022/05/07 04:21:13;;;;;;;8.97;7.30;;;;;;;11.81;83.26;102270.03;5008066;28;20809;-72
2022/05/07 04:23:38;;;;;;;9.83;7.27;;;;;;;11.87;83.22;102260.88;5008345;28;20214;-72
2022/05/07 04:26:04;;;;;;;9.47;7.10;;;;;;;11.92;83.63;102256.78;5007730;28;20227;-72
2022/05/07 04:28:34;;;;;;;7.47;6.77;;;;;;;11.92;84.26;102266.16;5008040;28;20169;-71
2022/05/07 04:31:00;;;;;;;9.17;6.93;;;;;;;11.94;83.89;102267.13;5008821;28;20190;-72
2022/05/07 04:33:31;;;;;;;8.13;6.40;;;;;;;11.92;83.98;102261.91;5021126;28;20213;-72
2022/05/07 04:36:01;;;;;;;9.73;7.23;;;;;;;12.01;84.17;102275.09;5030676;28;20189;-73
2022/05/07 04:38:28;;;;;;;8.70;6.60;;;;;;;12.11;83.73;102273.72;5047615;28;20210;-72
2022/05/07 04:40:54;;;;;;;8.97;7.30;;;;;;;12.11;84.30;102273.72;5032721;28;20249;-72
2022/05/07 04:43:21;;;;;;;9.00;7.60;;;;;;;12.15;84.66;102273.00;5027702;28;20210;-73
2022/05/07 04:45:47;;;;;;;8.73;7.70;;;;;;;12.22;84.69;102275.00;5027792;28;20190;-73
2022/05/07 04:48:15;;;;;;;9.40;8.27;;;;;;;12.24;84.69;102279.38;5027374;28;20187;-73
2022/05/07 04:50:41;;;;;;;8.77;7.87;;;;;;;12.24;84.33;102281.03;5027866;28;20190;-72
2022/05/07 04:53:26;;;;;;;8.83;7.93;;;;;;;12.31;83.84;102276.16;5027184;28;20210;-72
2022/05/07 04:55:54;;;;;;;10.60;8.57;;;;;;;12.36;84.05;102290.06;5027759;28;20190;-72
2022/05/07 04:58:22;;;;;;;9.67;8.20;;;;;;;12.47;83.44;102282.72;5010141;28;20195;-72
2022/05/07 05:00:48;;;;;;;9.73;8.23;;;;;;;12.53;83.49;102285.53;5007867;28;20722;-72
2022/05/07 05:03:20;;;;;;;9.27;8.27;;;;;;;12.55;83.43;102283.88;5007471;28;20203;-72
2022/05/07 05:06:00;;;;;;;10.47;7.47;;;;;;;12.64;83.34;102277.38;5007766;28;20199;-72
2022/05/07 05:08:44;;;;;;;11.33;8.33;;;;;;;12.72;83.09;102278.47;5008948;28;20259;-72
2022/05/07 05:11:10;;;;;;;9.03;7.97;;;;;;;12.75;83.27;102277.69;5009106;28;20183;-72
2022/05/07 05:13:35;;;;;;;10.97;8.97;;;;;;;12.76;83.50;102280.31;5009613;28;20249;-72
2022/05/07 05:16:01;;;;;;;9.20;8.00;;;;;;;12.88;83.39;102289.28;5008120;28;20536;-73
2022/05/07 05:18:50;;;;;;;11.63;9.40;;;;;;;13.01;82.95;102286.31;5015029;28;20202;-73
2022/05/07 05:21:19;;;;;;;11.40;9.20;;;;;;;13.12;82.84;102287.53;5010671;28;20306;-72
2022/05/07 05:24:06;;;;;;;9.67;8.67;;;;;;;13.23;82.19;102283.59;5011019;28;20238;-72
2022/05/07 05:26:34;;;;;;;11.37;9.37;;;;;;;13.26;81.86;102282.00;5010695;28;20194;-72
2022/05/07 05:28:59;;;;;;;12.13;9.23;;;;;;;13.37;81.71;102293.50;5010646;28;20191;-72
2022/05/07 05:31:25;;;;;;;10.87;9.70;;;;;;;13.40;80.99;102290.16;5010460;28;20272;-71
2022/05/07 05:34:12;;;;;;;10.53;8.63;;;;;;;13.53;81.27;102287.16;5034023;28;20211;-72
2022/05/07 05:36:45;;;;;;;15.60;10.07;;;;;;;13.64;80.17;102289.22;5026847;28;20606;-70
2022/05/07 05:39:10;;;;;;;13.83;11.03;;;;;;;13.73;79.85;102293.75;5010484;28;20195;-72
2022/05/07 05:41:41;;;;;;;11.93;9.77;;;;;;;13.92;79.54;102290.91;5024166;28;20205;-72
2022/05/07 05:44:07;;;;;;;11.17;9.97;;;;;;;13.95;77.98;102291.00;5040247;28;20636;-72
2022/05/07 05:46:33;;;;;;;12.17;10.00;;;;;;;13.98;77.34;102297.09;5030526;28;20265;-72
2022/05/07 05:48:58;;;;;;;12.97;10.07;;;;;;;13.86;78.23;102298.44;5016411;28;20277;-72
2022/05/07 05:51:24;;;;;;;12.43;11.13;;;;;;;13.98;77.75;102297.09;5019303;28;20213;-69
2022/05/07 05:53:51;;;;;;;14.27;10.90;;;;;;;14.21;76.53;102292.63;5028319;28;20802;-72
2022/05/07 05:56:16;;;;;;;13.10;11.00;;;;;;;14.44;74.73;102284.69;5034241;28;20202;-71
2022/05/07 05:58:46;;;;;;;14.43;11.03;;;;;;;14.45;74.21;102290.75;5062908;28;20621;-73
2022/05/07 06:01:13;;;;;;;12.50;11.20;;;;;;;14.44;74.37;102288.97;5037796;28;20636;-72
2022/05/07 06:03:51;;;;;;;15.57;12.93;;;;;;;14.29;75.03;102292.03;5031544;28;20232;-71
2022/05/07 06:06:18;;;;;;;13.97;12.27;;;;;;;14.45;75.16;102298.47;5028621;28;20225;-72
2022/05/07 06:08:43;;;;;;;14.37;11.73;;;;;;;14.49;74.90;102301.16;5025816;28;20218;-72
2022/05/07 06:11:10;;;;;;;16.23;10.87;;;;;;;14.64;74.43;102300.69;5023692;28;20190;-72
2022/05/07 06:13:36;;;;;;;13.87;11.93;;;;;;;14.63;73.97;102310.13;5024142;28;20264;-71
2022/05/07 06:16:01;;;;;;;14.90;11.93;;;;;;;14.73;74.25;102306.94;5020984;28;20183;-72
2022/05/07 06:18:29;;;;;;;14.33;11.67;;;;;;;14.84;73.10;102308.13;5028332;28;20332;-72
2022/05/07 06:21:01;;;;;;;15.23;11.93;;;;;;;14.98;73.69;102313.63;5029640;28;20206;-71
2022/05/07 06:23:29;;;;;;;18.27;12.53;;;;;;;15.09;72.84;102310.47;5028579;28;20202;-72
2022/05/07 06:28:39;;;;;;;16.53;12.60;;;;;;;15.33;72.10;102311.06;5028751;28;20186;-71
2022/05/07 06:31:05;;;;;;;16.20;12.50;;;;;;;15.40;71.16;102307.81;5029519;28;20225;-72
2022/05/07 06:33:32;;;;;;;14.30;12.47;;;;;;;15.46;71.62;102314.81;5030477;28;20221;-72
2022/05/07 06:36:01;;;;;;;17.43;12.30;;;;;;;15.63;71.57;102313.50;5029568;28;20186;-73
2022/05/07 06:38:37;;;;;;;15.13;11.97;;;;;;;15.79;70.14;102311.28;5025889;28;20276;-72
2022/05/07 06:41:05;;;;;;;15.83;12.40;;;;;;;15.86;70.93;102308.00;5003762;28;20298;-73
2022/05/07 06:43:33;;;;;;;14.73;13.13;;;;;;;16.02;70.42;102317.81;5034792;28;20814;-72
2022/05/07 06:46:03;;;;;;;14.80;12.13;;;;;;;16.01;70.39;102310.91;5010757;28;20184;-74
2022/05/07 06:48:30;;;;;;;13.23;11.83;;;;;;;16.04;70.21;102310.97;5009460;28;20298;-73
2022/05/07 06:51:02;;;;;;;15.03;12.53;;;;;;;16.01;70.25;102317.78;5034697;28;20185;-73
2022/05/07 06:53:28;;;;;;;15.13;13.10;;;;;;;16.03;70.15;102316.97;5030734;28;20767;-72
2022/05/07 06:55:56;;;;;;;15.63;13.57;;;;;;;15.99;69.41;102316.88;5024910;28;20195;-72
2022/05/07 06:58:22;;;;;;;19.03;14.87;;;;;;;16.02;69.91;102319.53;5010605;28;20198;-73
2022/05/07 07:00:48;;;;;;;19.03;14.13;;;;;;;16.05;70.98;102324.75;5026895;28;20215;-72
2022/05/07 07:03:14;;;;;;;18.67;15.27;;;;;;;16.10;69.95;102326.59;5029721;28;20213;-73
2022/05/07 07:05:39;;;;;;;17.23;15.17;;;;;;;16.18;69.84;102317.31;5030308;28;20190;-73
2022/05/07 07:08:04;;;;;;;21.13;17.33;;;;;;;16.22;69.21;102321.72;5028463;28;20196;-72
2022/05/07 07:10:30;;;;;;;22.20;17.13;;;;;;;16.45;68.89;102328.22;5028806;28;20298;-72
2022/05/07 07:12:55;;;;;;;19.70;15.70;;;;;;;16.62;68.55;102321.63;5024178;28;20250;-73
2022/05/07 07:15:20;;;;;;;17.87;15.40;;;;;;;16.76;67.95;102316.75;5010134;28;20211;-73
2022/05/07 07:17:46;;;;;;;20.03;15.33;;;;;;;16.88;67.33;102316.94;5010014;28;20214;-73
2022/05/07 07:20:11;;;;;;;21.37;15.23;;;;;;;17.01;66.11;102324.94;5013142;28;20236;-74
2022/05/07 07:22:39;;;;;;;17.80;15.00;;;;;;;17.11;65.49;102320.78;5017753;28;20217;-72
2022/05/07 07:25:05;;;;;;;16.77;14.03;;;;;;;17.34;64.74;102322.03;5009690;28;20191;-72
2022/05/07 07:27:30;;;;;;;17.70;15.53;;;;;;;17.50;64.32;102324.91;5010089;28;20190;-72
2022/05/07 07:29:55;;;;;;;17.77;14.90;;;;;;;17.50;63.63;102327.50;5029059;28;20186;-73
2022/05/07 07:32:21;;;;;;;15.63;13.67;;;;;;;17.59;64.44;102327.63;5029056;28;20199;-73
2022/05/07 07:34:46;;;;;;;16.63;14.17;;;;;;;17.62;63.98;102326.81;5029672;28;20236;-73
2022/05/07 07:37:12;;;;;;;15.37;12.63;;;;;;;17.66;63.54;102334.66;5029249;28;20187;-73
2022/05/07 07:39:37;;;;;;;18.00;14.07;;;;;;;17.64;63.19;102327.72;5028762;28;20236;-74
2022/05/07 07:42:02;;;;;;;16.27;13.37;;;;;;;17.74;63.39;102330.44;5029155;28;20190;-73
2022/05/07 07:44:28;;;;;;;24.77;13.70;;;;;;;18.17;61.45;102330.16;5029800;28;20203;-70
2022/05/07 07:49:38;;;;;;;16.50;12.77;;;;;;;18.74;59.30;102330.84;5026875;28;20185;-73
2022/05/07 07:52:04;;;;;;;15.73;11.57;;;;;;;18.71;58.01;102332.53;5043946;28;20276;-73
2022/05/07 07:54:32;;;;;;;14.00;10.53;;;;;;;18.58;57.92;102328.06;5048847;28;20200;-73
2022/05/07 07:57:02;;;;;;;13.27;10.77;;;;;;;18.79;57.67;102334.34;5049350;28;20193;-73
2022/05/07 07:59:28;;;;;;;14.93;10.73;;;;;;;18.61;57.55;102330.72;5048914;28;20659;-72
2022/05/07 08:01:53;;;;;;;11.20;9.47;;;;;;;18.49;57.49;102331.44;5049144;28;20193;-73
2022/05/07 08:04:21;;;;;;;12.23;10.83;;;;;;;18.90;57.30;102330.16;5040177;28;20217;-72
2022/05/07 08:11:40;;;;;;;12.20;9.10;;;;;;;19.65;55.47;102335.09;5028940;28;20179;-72
2022/05/07 08:12:16;;;;;;;14.47;9.97;;;;;;;20.45;52.88;102333.78;5028469;28;20221;-73
2022/05/07 08:14:41;;;;;;;13.23;9.80;;;;;;;20.29;53.18;102332.84;5029194;28;20206;-72
2022/05/07 08:17:06;;;;;;;11.30;9.17;;;;;;;20.06;53.15;102337.06;5028277;28;20206;-73
2022/05/07 08:19:32;;;;;;;12.70;10.10;;;;;;;19.94;53.64;102336.13;5028965;28;20186;-72
2022/05/07 08:21:57;;;;;;;13.43;9.60;;;;;;;19.55;54.81;102343.69;5027581;28;20182;-73
2022/05/07 08:24:22;;;;;;;11.50;9.63;;;;;;;19.69;55.08;102337.72;5027786;28;20206;-72
2022/05/07 08:26:48;;;;;;;11.63;9.43;;;;;;;19.72;54.55;102345.53;5029032;28;20198;-73
2022/05/07 08:29:13;;;;;;;11.63;8.33;;;;;;;19.81;53.82;102332.59;5028799;28;20348;-73
2022/05/07 08:31:39;;;;;;;11.57;8.70;;;;;;;20.11;53.10;102339.72;5028924;28;20629;-73
2022/05/07 08:34:04;;;;;;;10.83;7.60;;;;;;;20.26;52.66;102337.19;5027217;28;20214;-73
2022/05/07 08:36:29;;;;;;;14.07;7.17;;;;;;;20.08;51.95;102339.72;5027642;28;20198;-72
2022/05/07 08:38:55;;;;;;;8.70;4.30;;;;;;;20.14;50.95;102342.34;5027943;28;20199;-72
2022/05/07 08:41:20;;;;;;;6.27;4.20;;;;;;;20.05;50.60;102340.53;5028864;28;20210;-72
2022/05/07 08:43:46;;;;;;;6.03;4.00;;;;;;;20.39;50.55;102337.22;5028983;28;20730;-72
2022/05/07 08:46:14;;;;;;;7.63;4.27;;;;;;;20.47;49.67;102337.25;5028698;28;20187;-72
2022/05/07 08:48:41;;;;;;;6.60;4.43;;;;;;;20.67;49.34;102345.97;5028261;28;20327;-72
2022/05/07 08:51:07;;;;;;;5.97;3.30;;;;;;;20.49;48.79;102339.00;5043946;28;20186;-73
2022/05/07 08:53:33;;;;;;;4.73;3.50;;;;;;;20.44;49.58;102345.91;5033724;28;20190;-72
2022/05/07 08:55:58;;;;;;;9.17;4.60;;;;;;;20.57;49.61;102342.50;5031427;28;20194;-72
2022/05/07 08:58:24;;;;;;;7.67;4.93;;;;;;;20.62;49.55;102342.47;5032331;28;20227;-72
2022/05/07 09:00:49;;;;;;;8.53;4.80;;;;;;;20.78;48.67;102339.06;5015931;28;20891;-73
2022/05/07 09:03:17;;;;;;;10.23;3.93;;;;;;;20.39;50.11;102339.81;5012088;28;20203;-72
2022/05/07 09:05:43;;;;;;;6.33;3.40;;;;;;;20.51;49.27;102341.59;5012808;28;20295;-72
2022/05/07 09:08:10;;;;;;;4.40;2.90;;;;;;;20.57;48.66;102347.69;5012257;28;20187;-72
2022/05/07 09:10:36;;;;;;;5.97;3.20;;;;;;;20.50;48.91;102358.94;5012548;28;20191;-73
2022/05/07 09:13:15;;;;;;;5.10;2.60;;;;;;;20.58;48.38;102346.81;5026089;28;20249;-73
2022/05/07 09:15:51;;;;;;;3.53;2.80;;;;;;;20.60;48.02;102350.28;5032271;28;20228;-71
2022/05/07 09:18:19;;;;;;;3.67;2.90;;;;;;;20.57;48.55;102354.63;5031771;28;20194;-72
2022/05/07 09:21:23;;;;;;;3.73;3.20;;;;;;;20.80;48.15;102353.81;5011269;28;20241;-72
2022/05/07 09:23:55;;;;;;;5.67;3.43;;;;;;;20.75;47.98;102349.47;5012331;28;20198;-72
2022/05/07 09:26:24;;;;;;;6.77;3.13;;;;;;;21.02;47.72;102349.53;5011969;28;20198;-72
2022/05/07 09:28:50;;;;;;;6.77;3.30;;;;;;;21.07;47.95;102345.19;5015809;28;20186;-72
2022/05/07 09:31:26;;;;;;;5.30;3.70;;;;;;;21.28;47.59;102343.47;5031290;28;20669;-72
2022/05/07 09:33:52;;;;;;;5.93;3.73;;;;;;;20.90;48.93;102350.41;5031985;28;20703;-72
2022/05/07 09:36:18;;;;;;;6.47;4.10;;;;;;;20.75;48.51;102342.53;5023518;28;20190;-72
2022/05/07 09:38:47;;;;;;;5.60;3.70;;;;;;;21.16;48.20;102337.38;5023096;28;20183;-74
2022/05/07 09:41:20;;;;;;;5.70;3.23;;;;;;;21.23;47.66;102336.53;5019772;28;20587;-73
2022/05/07 09:43:49;;;;;;;7.57;3.07;;;;;;;21.34;46.41;102340.00;5016177;28;20688;-72
2022/05/07 09:46:14;;;;;;;9.90;3.10;;;;;;;21.20;47.27;102342.63;5018995;28;20292;-71
2022/05/07 09:48:40;;;;;;;4.80;3.20;;;;;;;20.98;46.91;102345.19;5030445;28;20301;-72
2022/05/07 09:51:06;;;;;;;4.33;2.60;;;;;;;20.97;47.01;102340.84;5027940;28;20258;-72
2022/05/07 09:59:00;;;;;;;7.37;3.50;;;;;;;20.79;47.37;102344.28;5047971;28;20872;-71
2022/05/07 10:01:33;;;;;;;5.67;3.50;;;;;;;20.91;47.29;102346.06;5021142;28;20229;-72
2022/05/07 10:04:18;;;;;;;4.70;3.10;;;;;;;21.22;47.07;102347.81;5024146;28;20221;-71
2022/05/07 10:06:56;;;;;;;4.23;2.80;;;;;;;21.60;47.31;102341.69;5026869;28;20271;-71
2022/05/07 10:09:37;;;;;;;3.33;2.40;;;;;;;21.58;45.26;102339.97;5017787;28;20187;-71
2022/05/07 10:12:03;;;;;;;4.50;2.50;;;;;;;21.31;45.39;102339.97;5012901;28;20187;-71
2022/05/07 10:14:31;;;;;;;3.10;2.30;;;;;;;21.18;46.44;102344.34;5030999;28;20572;-70
2022/05/07 10:17:01;;;;;;;4.73;2.60;;;;;;;21.14;46.72;102347.81;5028717;28;20205;-71
2022/05/07 10:19:46;;;;;;;6.00;3.03;;;;;;;21.06;47.08;102349.53;5029384;28;20190;-72
2022/05/07 10:22:24;;;;;;;6.60;2.70;;;;;;;21.05;46.57;102353.00;5010910;28;20806;-71
2022/05/07 10:25:06;;;;;;;5.97;2.50;;;;;;;21.40;46.06;102350.41;5043171;28;20197;-71
2022/05/07 10:27:33;;;;;;;6.90;2.50;;;;;;;21.62;45.71;102345.19;5031012;28;20671;-71
2022/05/07 10:30:09;;;;;;;5.33;2.50;;;;;;;21.39;45.78;102346.06;5030567;28;20182;-71
2022/05/07 10:32:58;;;;;;;6.67;2.87;;;;;;;21.75;45.40;102338.22;5030637;28;20687;-71
2022/05/07 10:35:48;;;;;;;3.60;2.47;;;;;;;21.46;44.55;102343.44;5030420;28;20194;-71
2022/05/07 10:38:32;;;;;;;5.83;2.73;;;;;;;21.53;45.93;102339.09;5028575;28;20205;-71
2022/05/07 10:40:59;;;;;;;4.33;2.27;;;;;;;21.58;45.65;102340.84;5030178;28;20194;-71
2022/05/07 10:43:25;;;;;;;5.27;2.73;;;;;;;21.66;45.78;102336.44;5030476;28;20210;-71
2022/05/07 10:45:55;;;;;;;6.03;2.90;;;;;;;22.55;44.15;102337.94;5030054;28;20205;-72
2022/05/07 10:48:20;;;;;;;4.77;2.80;;;;;;;23.13;42.45;102334.91;5030577;28;20286;-71
2022/05/07 10:50:51;;;;;;;5.83;3.00;;;;;;;23.85;41.22;102326.38;5033567;28;20781;-71
2022/05/07 10:53:16;;;;;;;4.30;2.77;;;;;;;23.62;41.30;102325.75;5032662;28;20202;-71
2022/05/07 10:55:41;;;;;;;5.77;3.40;;;;;;;23.82;40.57;102326.44;5029706;28;20687;-71
2022/05/07 10:58:07;;;;;;;6.57;2.93;;;;;;;24.08;40.76;102318.31;5029831;28;20329;-72
2022/05/07 11:00:34;;;;;;;4.80;2.90;;;;;;;24.41;41.06;102317.84;5030162;28;20210;-71
2022/05/07 11:02:59;;;;;;;4.55;2.85;;;;;;;24.29;39.95;102318.00;5029575;28;20684;-72
2022/05/07 11:05:44;;;;;;;6.32;3.47;;;;;;;24.19;39.96;102319.03;5019550;28;20324;-71
2022/05/07 11:08:10;;;;;;;5.15;3.70;;;;;;;24.72;39.76;102314.78;5029789;28;20190;-71
2022/05/07 11:10:37;;;;;;;4.40;3.70;;;;;;;24.29;39.67;102318.88;5027431;28;20199;-70
2022/05/07 11:13:12;;;;;;;5.90;3.63;;;;;;;24.67;38.58;102310.53;5016732;28;20845;-70
2022/05/07 11:15:38;;;;;;;8.07;4.03;;;;;;;24.38;39.21;102316.16;5029375;28;20648;-71
2022/05/07 11:18:16;;;;;;;6.10;4.07;;;;;;;24.06;39.75;102315.69;5029722;28;20179;-70
2022/05/07 11:20:43;;;;;;;4.55;3.50;;;;;;;24.48;39.11;102311.63;5028042;28;20210;-71
2022/05/07 11:23:12;;;;;;;6.15;4.00;;;;;;;24.54;39.80;102307.16;5027660;28;20328;-71
2022/05/07 11:25:40;;;;;;;5.78;4.38;;;;;;;24.42;40.68;102312.59;5027437;28;20250;-71
2022/05/07 11:28:05;;;;;;;4.72;3.92;;;;;;;24.44;39.78;102310.81;5023079;28;20308;-71
2022/05/07 11:30:31;;;;;;;6.18;3.40;;;;;;;24.30;40.14;102306.63;5008809;28;21013;-71
2022/05/07 11:33:04;;;;;;;5.60;3.25;;;;;;;24.35;40.13;102310.09;5007999;28;20305;-71
2022/05/07 11:35:29;;;;;;;4.00;2.80;;;;;;;24.34;39.93;102308.34;5009357;28;20183;-70
2022/05/07 11:37:55;;;;;;;4.37;3.10;;;;;;;23.81;40.99;102303.72;5009191;28;20572;-70
2022/05/07 11:40:28;;;;;;;4.63;2.97;;;;;;;23.82;40.69;102308.09;5009747;28;20592;-71
2022/05/07 11:45:25;;;;;;;4.27;3.43;;;;;;;23.77;40.75;102304.69;5008011;28;20215;-71
2022/05/07 11:45:39;;;;;;;5.80;3.67;;;;;;;24.48;40.13;102304.66;5009941;28;20201;-70